sensor_id;sensor_type;location;lat;lon;timestamp;P1;durP1;ratioP1;P2;durP2;ratioP2
17173;SDS011;8702;48.130;-1.696;2023-04-03T00:02:02;13.90;;;3.93;;
17173;SDS011;8702;48.130;-1.696;2023-04-03T00:04:29;6.73;;;3.43;;
17173;SDS011;8702;48.130;-1.696;2023-04-03T00:06:56;10.70;;;4.20;;
17173;SDS011;8702;48.130;-1.696;2023-04-03T00:09:24;11.97;;;4.07;;
17173;SDS011;8702;48.130;-1.696;2023-04-03T00:11:51;10.43;;;4.10;;
17173;SDS011;8702;48.130;-1.696;2023-04-03T00:14:18;11.43;;;4.40;;
17173;SDS011;8702;48.130;-1.696;2023-04-03T00:16:45;9.77;;;3.57;;
17173;SDS011;8702;48.130;-1.696;2023-04-03T00:19:12;12.57;;;4.27;;
17173;SDS011;8702;48.130;-1.696;2023-04-03T00:21:39;9.83;;;3.80;;
17173;SDS011;8702;48.130;-1.696;2023-04-03T00:24:06;14.83;;;4.57;;
17173;SDS011;8702;48.130;-1.696;2023-04-03T00:26:35;11.03;;;4.43;;
17173;SDS011;8702;48.130;-1.696;2023-04-03T00:29:02;15.63;;;4.07;;
17173;SDS011;8702;48.130;-1.696;2023-04-03T00:31:28;13.10;;;4.27;;
17173;SDS011;8702;48.130;-1.696;2023-04-03T00:33:56;11.73;;;4.37;;
17173;SDS011;8702;48.130;-1.696;2023-04-03T00:36:23;12.27;;;4.80;;
17173;SDS011;8702;48.130;-1.696;2023-04-03T00:38:50;12.80;;;4.47;;
17173;SDS011;8702;48.130;-1.696;2023-04-03T00:41:17;17.33;;;4.33;;
17173;SDS011;8702;48.130;-1.696;2023-04-03T00:43:46;12.17;;;3.93;;
17173;SDS011;8702;48.130;-1.696;2023-04-03T00:46:13;12.03;;;4.27;;
17173;SDS011;8702;48.130;-1.696;2023-04-03T00:48:40;18.73;;;4.43;;
17173;SDS011;8702;48.130;-1.696;2023-04-03T00:51:09;11.63;;;4.27;;
17173;SDS011;8702;48.130;-1.696;2023-04-03T00:53:40;11.13;;;4.00;;
17173;SDS011;8702;48.130;-1.696;2023-04-03T00:56:11;12.73;;;4.13;;
17173;SDS011;8702;48.130;-1.696;2023-04-03T00:58:42;13.10;;;4.47;;
17173;SDS011;8702;48.130;-1.696;2023-04-03T01:01:16;12.33;;;4.10;;
17173;SDS011;8702;48.130;-1.696;2023-04-03T01:03:48;13.40;;;4.33;;
17173;SDS011;8702;48.130;-1.696;2023-04-03T01:06:15;11.07;;;4.00;;
17173;SDS011;8702;48.130;-1.696;2023-04-03T01:08:46;9.93;;;3.67;;
17173;SDS011;8702;48.130;-1.696;2023-04-03T01:11:16;11.60;;;4.37;;
17173;SDS011;8702;48.130;-1.696;2023-04-03T01:13:43;16.00;;;4.70;;
17173;SDS011;8702;48.130;-1.696;2023-04-03T01:16:11;8.57;;;3.83;;
17173;SDS011;8702;48.130;-1.696;2023-04-03T01:18:39;10.13;;;4.20;;
17173;SDS011;8702;48.130;-1.696;2023-04-03T01:24:11;13.00;;;4.10;;
17173;SDS011;8702;48.130;-1.696;2023-04-03T01:26:57;10.33;;;3.87;;
17173;SDS011;8702;48.130;-1.696;2023-04-03T01:29:25;12.27;;;4.40;;
17173;SDS011;8702;48.130;-1.696;2023-04-03T01:31:53;8.93;;;4.00;;
17173;SDS011;8702;48.130;-1.696;2023-04-03T01:34:21;17.10;;;4.53;;
17173;SDS011;8702;48.130;-1.696;2023-04-03T01:36:49;19.70;;;4.97;;
17173;SDS011;8702;48.130;-1.696;2023-04-03T01:39:17;11.20;;;3.97;;
17173;SDS011;8702;48.130;-1.696;2023-04-03T01:41:45;15.83;;;4.67;;
17173;SDS011;8702;48.130;-1.696;2023-04-03T01:44:12;16.10;;;4.60;;
17173;SDS011;8702;48.130;-1.696;2023-04-03T01:46:39;18.17;;;4.93;;
17173;SDS011;8702;48.130;-1.696;2023-04-03T01:49:08;13.20;;;4.37;;
17173;SDS011;8702;48.130;-1.696;2023-04-03T01:51:35;13.17;;;4.37;;
17173;SDS011;8702;48.130;-1.696;2023-04-03T01:54:02;10.67;;;4.13;;
17173;SDS011;8702;48.130;-1.696;2023-04-03T01:56:29;15.50;;;4.87;;
17173;SDS011;8702;48.130;-1.696;2023-04-03T01:58:56;18.70;;;4.73;;
17173;SDS011;8702;48.130;-1.696;2023-04-03T02:01:24;15.53;;;4.20;;
17173;SDS011;8702;48.130;-1.696;2023-04-03T02:03:51;22.43;;;5.07;;
17173;SDS011;8702;48.130;-1.696;2023-04-03T02:06:20;14.53;;;4.30;;
17173;SDS011;8702;48.130;-1.696;2023-04-03T02:08:47;13.20;;;4.27;;
17173;SDS011;8702;48.130;-1.696;2023-04-03T02:11:14;14.10;;;3.93;;
17173;SDS011;8702;48.130;-1.696;2023-04-03T02:13:41;16.47;;;5.17;;
17173;SDS011;8702;48.130;-1.696;2023-04-03T02:16:08;12.27;;;4.30;;
17173;SDS011;8702;48.130;-1.696;2023-04-03T02:18:36;15.70;;;4.53;;
17173;SDS011;8702;48.130;-1.696;2023-04-03T02:21:05;16.90;;;4.87;;
17173;SDS011;8702;48.130;-1.696;2023-04-03T02:23:34;12.47;;;4.60;;
17173;SDS011;8702;48.130;-1.696;2023-04-03T02:26:03;18.17;;;4.97;;
17173;SDS011;8702;48.130;-1.696;2023-04-03T02:28:31;16.53;;;4.43;;
17173;SDS011;8702;48.130;-1.696;2023-04-03T02:30:58;13.33;;;4.40;;
17173;SDS011;8702;48.130;-1.696;2023-04-03T02:33:25;12.17;;;4.53;;
17173;SDS011;8702;48.130;-1.696;2023-04-03T02:35:52;14.97;;;4.80;;
17173;SDS011;8702;48.130;-1.696;2023-04-03T02:38:21;14.53;;;4.70;;
17173;SDS011;8702;48.130;-1.696;2023-04-03T02:40:52;12.73;;;4.03;;
17173;SDS011;8702;48.130;-1.696;2023-04-03T02:43:23;13.03;;;4.37;;
17173;SDS011;8702;48.130;-1.696;2023-04-03T02:45:53;16.27;;;4.37;;
17173;SDS011;8702;48.130;-1.696;2023-04-03T02:48:23;12.13;;;4.23;;
17173;SDS011;8702;48.130;-1.696;2023-04-03T02:50:53;19.17;;;4.87;;
17173;SDS011;8702;48.130;-1.696;2023-04-03T02:53:22;15.83;;;4.33;;
17173;SDS011;8702;48.130;-1.696;2023-04-03T02:55:53;14.87;;;4.40;;
17173;SDS011;8702;48.130;-1.696;2023-04-03T02:58:22;14.47;;;4.30;;
17173;SDS011;8702;48.130;-1.696;2023-04-03T03:00:50;15.47;;;4.57;;
17173;SDS011;8702;48.130;-1.696;2023-04-03T03:03:18;16.80;;;5.30;;
17173;SDS011;8702;48.130;-1.696;2023-04-03T03:05:45;11.73;;;4.17;;
17173;SDS011;8702;48.130;-1.696;2023-04-03T03:08:13;10.77;;;4.30;;
17173;SDS011;8702;48.130;-1.696;2023-04-03T03:10:41;12.90;;;5.10;;
17173;SDS011;8702;48.130;-1.696;2023-04-03T03:13:12;12.43;;;4.13;;
17173;SDS011;8702;48.130;-1.696;2023-04-03T03:15:40;19.77;;;4.63;;
17173;SDS011;8702;48.130;-1.696;2023-04-03T03:18:08;16.27;;;4.40;;
17173;SDS011;8702;48.130;-1.696;2023-04-03T03:20:36;11.10;;;3.90;;
17173;SDS011;8702;48.130;-1.696;2023-04-03T03:23:04;18.07;;;5.03;;
17173;SDS011;8702;48.130;-1.696;2023-04-03T03:25:32;16.00;;;5.03;;
17173;SDS011;8702;48.130;-1.696;2023-04-03T03:28:01;10.70;;;3.87;;
17173;SDS011;8702;48.130;-1.696;2023-04-03T03:30:32;15.17;;;5.00;;
17173;SDS011;8702;48.130;-1.696;2023-04-03T03:33:02;17.70;;;4.77;;
17173;SDS011;8702;48.130;-1.696;2023-04-03T03:35:32;16.80;;;4.67;;
17173;SDS011;8702;48.130;-1.696;2023-04-03T03:37:59;11.50;;;4.30;;
17173;SDS011;8702;48.130;-1.696;2023-04-03T03:40:26;12.63;;;5.20;;
17173;SDS011;8702;48.130;-1.696;2023-04-03T03:42:52;14.83;;;4.77;;
17173;SDS011;8702;48.130;-1.696;2023-04-03T03:45:20;12.10;;;4.67;;
17173;SDS011;8702;48.130;-1.696;2023-04-03T03:47:48;16.93;;;4.90;;
17173;SDS011;8702;48.130;-1.696;2023-04-03T03:50:15;11.40;;;4.13;;
17173;SDS011;8702;48.130;-1.696;2023-04-03T03:52:43;12.47;;;4.27;;
17173;SDS011;8702;48.130;-1.696;2023-04-03T03:55:11;16.67;;;4.87;;
17173;SDS011;8702;48.130;-1.696;2023-04-03T03:57:38;14.17;;;5.10;;
17173;SDS011;8702;48.130;-1.696;2023-04-03T04:00:06;11.53;;;4.80;;
17173;SDS011;8702;48.130;-1.696;2023-04-03T04:02:33;12.27;;;4.07;;
17173;SDS011;8702;48.130;-1.696;2023-04-03T04:05:02;19.83;;;5.10;;
17173;SDS011;8702;48.130;-1.696;2023-04-03T04:07:30;11.77;;;4.40;;
17173;SDS011;8702;48.130;-1.696;2023-04-03T04:09:57;14.17;;;4.43;;
17173;SDS011;8702;48.130;-1.696;2023-04-03T04:12:24;12.53;;;4.23;;
17173;SDS011;8702;48.130;-1.696;2023-04-03T04:14:51;13.53;;;4.23;;
17173;SDS011;8702;48.130;-1.696;2023-04-03T04:17:18;16.80;;;4.57;;
17173;SDS011;8702;48.130;-1.696;2023-04-03T04:19:46;13.60;;;4.47;;
17173;SDS011;8702;48.130;-1.696;2023-04-03T04:22:14;14.53;;;4.93;;
17173;SDS011;8702;48.130;-1.696;2023-04-03T04:24:41;10.93;;;4.27;;
17173;SDS011;8702;48.130;-1.696;2023-04-03T04:27:09;17.87;;;4.93;;
17173;SDS011;8702;48.130;-1.696;2023-04-03T04:29:36;17.03;;;4.57;;
17173;SDS011;8702;48.130;-1.696;2023-04-03T04:32:03;12.47;;;4.07;;
17173;SDS011;8702;48.130;-1.696;2023-04-03T04:34:31;12.77;;;4.40;;
17173;SDS011;8702;48.130;-1.696;2023-04-03T04:36:58;11.13;;;4.07;;
17173;SDS011;8702;48.130;-1.696;2023-04-03T04:39:26;10.70;;;3.90;;
17173;SDS011;8702;48.130;-1.696;2023-04-03T04:41:54;14.33;;;4.83;;
17173;SDS011;8702;48.130;-1.696;2023-04-03T04:44:21;16.20;;;4.87;;
17173;SDS011;8702;48.130;-1.696;2023-04-03T04:46:48;14.67;;;4.27;;
17173;SDS011;8702;48.130;-1.696;2023-04-03T04:49:15;16.17;;;5.03;;
17173;SDS011;8702;48.130;-1.696;2023-04-03T04:51:42;12.60;;;4.90;;
17173;SDS011;8702;48.130;-1.696;2023-04-03T04:54:10;11.23;;;4.17;;
17173;SDS011;8702;48.130;-1.696;2023-04-03T04:56:38;11.83;;;4.30;;
17173;SDS011;8702;48.130;-1.696;2023-04-03T04:59:05;11.30;;;4.20;;
17173;SDS011;8702;48.130;-1.696;2023-04-03T05:01:33;13.17;;;4.43;;
17173;SDS011;8702;48.130;-1.696;2023-04-03T05:04:00;13.43;;;3.83;;
17173;SDS011;8702;48.130;-1.696;2023-04-03T05:06:28;12.70;;;4.43;;
17173;SDS011;8702;48.130;-1.696;2023-04-03T05:08:56;11.57;;;4.27;;
17173;SDS011;8702;48.130;-1.696;2023-04-03T05:11:24;11.70;;;4.13;;
17173;SDS011;8702;48.130;-1.696;2023-04-03T05:13:52;13.07;;;4.30;;
17173;SDS011;8702;48.130;-1.696;2023-04-03T05:16:19;11.00;;;4.10;;
17173;SDS011;8702;48.130;-1.696;2023-04-03T05:18:46;8.83;;;3.93;;
17173;SDS011;8702;48.130;-1.696;2023-04-03T05:21:13;12.77;;;3.63;;
17173;SDS011;8702;48.130;-1.696;2023-04-03T05:23:40;11.83;;;3.90;;
17173;SDS011;8702;48.130;-1.696;2023-04-03T05:26:07;10.13;;;4.10;;
17173;SDS011;8702;48.130;-1.696;2023-04-03T05:28:34;10.17;;;4.10;;
17173;SDS011;8702;48.130;-1.696;2023-04-03T05:31:02;16.73;;;4.93;;
17173;SDS011;8702;48.130;-1.696;2023-04-03T05:33:29;11.67;;;4.00;;
17173;SDS011;8702;48.130;-1.696;2023-04-03T05:35:57;11.30;;;4.50;;
17173;SDS011;8702;48.130;-1.696;2023-04-03T05:38:29;14.83;;;4.57;;
17173;SDS011;8702;48.130;-1.696;2023-04-03T05:40:56;8.80;;;4.10;;
17173;SDS011;8702;48.130;-1.696;2023-04-03T05:43:23;15.53;;;4.77;;
17173;SDS011;8702;48.130;-1.696;2023-04-03T05:45:50;18.37;;;4.73;;
17173;SDS011;8702;48.130;-1.696;2023-04-03T05:48:19;9.73;;;4.17;;
17173;SDS011;8702;48.130;-1.696;2023-04-03T05:50:46;11.23;;;4.73;;
17173;SDS011;8702;48.130;-1.696;2023-04-03T05:53:14;10.93;;;4.23;;
17173;SDS011;8702;48.130;-1.696;2023-04-03T05:55:45;12.60;;;5.03;;
17173;SDS011;8702;48.130;-1.696;2023-04-03T05:58:12;12.63;;;4.17;;
17173;SDS011;8702;48.130;-1.696;2023-04-03T06:00:39;15.53;;;4.80;;
17173;SDS011;8702;48.130;-1.696;2023-04-03T06:03:06;10.93;;;4.10;;
17173;SDS011;8702;48.130;-1.696;2023-04-03T06:05:34;12.90;;;4.63;;
17173;SDS011;8702;48.130;-1.696;2023-04-03T06:08:02;11.00;;;4.17;;
17173;SDS011;8702;48.130;-1.696;2023-04-03T06:10:29;12.63;;;4.53;;
17173;SDS011;8702;48.130;-1.696;2023-04-03T06:12:56;12.53;;;4.27;;
17173;SDS011;8702;48.130;-1.696;2023-04-03T06:15:22;12.57;;;4.00;;
17173;SDS011;8702;48.130;-1.696;2023-04-03T06:17:49;15.73;;;5.47;;
17173;SDS011;8702;48.130;-1.696;2023-04-03T06:20:16;10.97;;;4.17;;
17173;SDS011;8702;48.130;-1.696;2023-04-03T06:22:45;12.87;;;5.00;;
17173;SDS011;8702;48.130;-1.696;2023-04-03T06:25:12;10.90;;;4.20;;
17173;SDS011;8702;48.130;-1.696;2023-04-03T06:27:39;14.70;;;4.50;;
17173;SDS011;8702;48.130;-1.696;2023-04-03T06:30:07;11.30;;;5.00;;
17173;SDS011;8702;48.130;-1.696;2023-04-03T06:32:34;11.07;;;4.20;;
17173;SDS011;8702;48.130;-1.696;2023-04-03T06:35:01;9.77;;;4.10;;
17173;SDS011;8702;48.130;-1.696;2023-04-03T06:37:29;9.77;;;4.23;;
17173;SDS011;8702;48.130;-1.696;2023-04-03T06:39:57;9.10;;;4.17;;
17173;SDS011;8702;48.130;-1.696;2023-04-03T06:42:25;8.77;;;3.90;;
17173;SDS011;8702;48.130;-1.696;2023-04-03T06:44:52;11.63;;;4.67;;
17173;SDS011;8702;48.130;-1.696;2023-04-03T06:47:19;10.27;;;4.40;;
17173;SDS011;8702;48.130;-1.696;2023-04-03T06:49:46;11.27;;;4.27;;
17173;SDS011;8702;48.130;-1.696;2023-04-03T06:52:13;9.10;;;3.73;;
17173;SDS011;8702;48.130;-1.696;2023-04-03T06:54:40;13.17;;;4.57;;
17173;SDS011;8702;48.130;-1.696;2023-04-03T06:57:09;13.53;;;4.60;;
17173;SDS011;8702;48.130;-1.696;2023-04-03T06:59:36;9.57;;;4.33;;
17173;SDS011;8702;48.130;-1.696;2023-04-03T07:02:03;8.63;;;4.30;;
17173;SDS011;8702;48.130;-1.696;2023-04-03T07:04:30;11.27;;;4.23;;
17173;SDS011;8702;48.130;-1.696;2023-04-03T07:06:57;10.80;;;4.40;;
17173;SDS011;8702;48.130;-1.696;2023-04-03T07:09:24;10.50;;;4.20;;
17173;SDS011;8702;48.130;-1.696;2023-04-03T07:11:51;10.83;;;4.30;;
17173;SDS011;8702;48.130;-1.696;2023-04-03T07:14:19;9.30;;;4.70;;
17173;SDS011;8702;48.130;-1.696;2023-04-03T07:16:46;9.93;;;3.63;;
17173;SDS011;8702;48.130;-1.696;2023-04-03T07:19:13;11.83;;;4.60;;
17173;SDS011;8702;48.130;-1.696;2023-04-03T07:21:40;7.93;;;4.50;;
17173;SDS011;8702;48.130;-1.696;2023-04-03T07:24:08;8.70;;;4.40;;
17173;SDS011;8702;48.130;-1.696;2023-04-03T07:26:35;8.73;;;4.60;;
17173;SDS011;8702;48.130;-1.696;2023-04-03T07:29:02;11.90;;;4.50;;
17173;SDS011;8702;48.130;-1.696;2023-04-03T07:31:31;9.23;;;4.50;;
17173;SDS011;8702;48.130;-1.696;2023-04-03T07:33:58;9.03;;;4.70;;
17173;SDS011;8702;48.130;-1.696;2023-04-03T07:36:25;7.00;;;4.13;;
17173;SDS011;8702;48.130;-1.696;2023-04-03T07:38:52;6.83;;;4.73;;
17173;SDS011;8702;48.130;-1.696;2023-04-03T07:41:19;5.83;;;4.70;;
17173;SDS011;8702;48.130;-1.696;2023-04-03T07:43:48;12.60;;;5.07;;
17173;SDS011;8702;48.130;-1.696;2023-04-03T07:46:15;6.70;;;4.93;;
17173;SDS011;8702;48.130;-1.696;2023-04-03T07:48:45;7.73;;;4.37;;
17173;SDS011;8702;48.130;-1.696;2023-04-03T07:51:12;12.00;;;5.17;;
17173;SDS011;8702;48.130;-1.696;2023-04-03T07:53:39;8.50;;;5.07;;
17173;SDS011;8702;48.130;-1.696;2023-04-03T07:56:07;9.67;;;5.47;;
17173;SDS011;8702;48.130;-1.696;2023-04-03T07:58:34;7.63;;;4.80;;
17173;SDS011;8702;48.130;-1.696;2023-04-03T08:01:02;11.77;;;5.60;;
17173;SDS011;8702;48.130;-1.696;2023-04-03T08:03:29;8.27;;;5.70;;
17173;SDS011;8702;48.130;-1.696;2023-04-03T08:06:01;9.67;;;5.57;;
17173;SDS011;8702;48.130;-1.696;2023-04-03T08:08:29;10.80;;;5.73;;
17173;SDS011;8702;48.130;-1.696;2023-04-03T08:10:58;9.77;;;5.40;;
17173;SDS011;8702;48.130;-1.696;2023-04-03T08:13:27;10.30;;;5.70;;
17173;SDS011;8702;48.130;-1.696;2023-04-03T08:15:55;11.13;;;5.77;;
17173;SDS011;8702;48.130;-1.696;2023-04-03T08:18:24;11.73;;;6.30;;
17173;SDS011;8702;48.130;-1.696;2023-04-03T08:20:51;8.03;;;5.97;;
17173;SDS011;8702;48.130;-1.696;2023-04-03T08:23:20;9.20;;;5.87;;
17173;SDS011;8702;48.130;-1.696;2023-04-03T08:25:47;7.30;;;5.40;;
17173;SDS011;8702;48.130;-1.696;2023-04-03T08:28:14;10.73;;;5.97;;
17173;SDS011;8702;48.130;-1.696;2023-04-03T08:30:41;10.90;;;6.70;;
17173;SDS011;8702;48.130;-1.696;2023-04-03T08:33:09;8.13;;;6.20;;
17173;SDS011;8702;48.130;-1.696;2023-04-03T08:35:38;7.93;;;5.60;;
17173;SDS011;8702;48.130;-1.696;2023-04-03T08:38:05;7.90;;;5.63;;
17173;SDS011;8702;48.130;-1.696;2023-04-03T08:40:34;11.17;;;6.43;;
17173;SDS011;8702;48.130;-1.696;2023-04-03T08:43:03;10.73;;;6.10;;
17173;SDS011;8702;48.130;-1.696;2023-04-03T08:45:49;9.13;;;6.87;;
17173;SDS011;8702;48.130;-1.696;2023-04-03T08:48:19;10.67;;;6.40;;
17173;SDS011;8702;48.130;-1.696;2023-04-03T08:50:49;11.90;;;6.57;;
17173;SDS011;8702;48.130;-1.696;2023-04-03T08:53:20;10.90;;;6.37;;
17173;SDS011;8702;48.130;-1.696;2023-04-03T08:55:50;10.07;;;6.67;;
17173;SDS011;8702;48.130;-1.696;2023-04-03T08:58:20;8.73;;;7.07;;
17173;SDS011;8702;48.130;-1.696;2023-04-03T09:00:50;11.90;;;8.13;;
17173;SDS011;8702;48.130;-1.696;2023-04-03T09:03:20;10.03;;;7.47;;
17173;SDS011;8702;48.130;-1.696;2023-04-03T09:05:48;10.33;;;8.13;;
17173;SDS011;8702;48.130;-1.696;2023-04-03T09:08:22;10.70;;;7.50;;
17173;SDS011;8702;48.130;-1.696;2023-04-03T09:10:54;9.80;;;7.57;;
17173;SDS011;8702;48.130;-1.696;2023-04-03T09:13:33;8.70;;;7.53;;
17173;SDS011;8702;48.130;-1.696;2023-04-03T09:16:10;12.50;;;7.83;;
17173;SDS011;8702;48.130;-1.696;2023-04-03T09:18:48;13.33;;;8.73;;
17173;SDS011;8702;48.130;-1.696;2023-04-03T09:21:20;9.67;;;8.40;;
17173;SDS011;8702;48.130;-1.696;2023-04-03T09:23:54;9.80;;;8.20;;
17173;SDS011;8702;48.130;-1.696;2023-04-03T09:26:27;9.33;;;8.27;;
17173;SDS011;8702;48.130;-1.696;2023-04-03T09:28:58;9.30;;;8.27;;
17173;SDS011;8702;48.130;-1.696;2023-04-03T09:31:35;9.63;;;8.63;;
17173;SDS011;8702;48.130;-1.696;2023-04-03T09:34:03;10.07;;;9.03;;
17173;SDS011;8702;48.130;-1.696;2023-04-03T09:36:40;10.10;;;9.03;;
17173;SDS011;8702;48.130;-1.696;2023-04-03T09:39:09;9.63;;;8.73;;
17173;SDS011;8702;48.130;-1.696;2023-04-03T09:41:39;9.90;;;9.00;;
17173;SDS011;8702;48.130;-1.696;2023-04-03T09:44:18;10.13;;;9.03;;
17173;SDS011;8702;48.130;-1.696;2023-04-03T09:46:47;10.40;;;9.23;;
17173;SDS011;8702;48.130;-1.696;2023-04-03T09:49:14;9.67;;;8.77;;
17173;SDS011;8702;48.130;-1.696;2023-04-03T09:51:41;11.47;;;8.90;;
17173;SDS011;8702;48.130;-1.696;2023-04-03T09:57:06;10.27;;;9.37;;
17173;SDS011;8702;48.130;-1.696;2023-04-03T09:59:43;10.97;;;9.87;;
17173;SDS011;8702;48.130;-1.696;2023-04-03T10:05:04;10.80;;;9.80;;
17173;SDS011;8702;48.130;-1.696;2023-04-03T10:07:52;9.50;;;8.60;;
17173;SDS011;8702;48.130;-1.696;2023-04-03T10:10:34;10.57;;;9.53;;
17173;SDS011;8702;48.130;-1.696;2023-04-03T10:13:07;10.27;;;9.37;;
17173;SDS011;8702;48.130;-1.696;2023-04-03T10:15:39;9.60;;;8.70;;
17173;SDS011;8702;48.130;-1.696;2023-04-03T10:18:14;11.10;;;9.57;;
17173;SDS011;8702;48.130;-1.696;2023-04-03T10:20:53;11.00;;;9.67;;
17173;SDS011;8702;48.130;-1.696;2023-04-03T10:23:24;9.80;;;8.83;;
17173;SDS011;8702;48.130;-1.696;2023-04-03T10:26:01;10.50;;;8.93;;
17173;SDS011;8702;48.130;-1.696;2023-04-03T10:28:39;10.27;;;9.23;;
17173;SDS011;8702;48.130;-1.696;2023-04-03T10:31:13;12.00;;;8.97;;
17173;SDS011;8702;48.130;-1.696;2023-04-03T10:33:47;10.87;;;9.87;;
17173;SDS011;8702;48.130;-1.696;2023-04-03T10:36:24;11.13;;;9.53;;
17173;SDS011;8702;48.130;-1.696;2023-04-03T10:39:00;10.33;;;9.33;;
17173;SDS011;8702;48.130;-1.696;2023-04-03T10:41:39;11.70;;;9.97;;
17173;SDS011;8702;48.130;-1.696;2023-04-03T10:44:15;11.93;;;10.30;;
17173;SDS011;8702;48.130;-1.696;2023-04-03T10:46:51;10.53;;;9.53;;
17173;SDS011;8702;48.130;-1.696;2023-04-03T10:49:25;10.53;;;9.50;;
17173;SDS011;8702;48.130;-1.696;2023-04-03T10:52:09;11.00;;;10.00;;
17173;SDS011;8702;48.130;-1.696;2023-04-03T10:54:44;11.33;;;10.23;;
17173;SDS011;8702;48.130;-1.696;2023-04-03T10:57:17;11.00;;;10.00;;
17173;SDS011;8702;48.130;-1.696;2023-04-03T10:59:47;11.43;;;10.23;;
17173;SDS011;8702;48.130;-1.696;2023-04-03T11:02:19;11.17;;;9.90;;
17173;SDS011;8702;48.130;-1.696;2023-04-03T11:04:50;10.33;;;9.40;;
17173;SDS011;8702;48.130;-1.696;2023-04-03T11:07:21;10.90;;;9.57;;
17173;SDS011;8702;48.130;-1.696;2023-04-03T11:09:49;11.47;;;10.30;;
17173;SDS011;8702;48.130;-1.696;2023-04-03T11:12:18;11.17;;;10.07;;
17173;SDS011;8702;48.130;-1.696;2023-04-03T11:14:49;10.90;;;9.90;;
17173;SDS011;8702;48.130;-1.696;2023-04-03T11:17:23;11.77;;;10.63;;
17173;SDS011;8702;48.130;-1.696;2023-04-03T11:19:57;10.90;;;9.87;;
17173;SDS011;8702;48.130;-1.696;2023-04-03T11:22:27;10.90;;;9.90;;
17173;SDS011;8702;48.130;-1.696;2023-04-03T11:24:58;10.00;;;9.00;;
17173;SDS011;8702;48.130;-1.696;2023-04-03T11:27:26;11.23;;;10.17;;
17173;SDS011;8702;48.130;-1.696;2023-04-03T11:29:57;11.20;;;10.13;;
17173;SDS011;8702;48.130;-1.696;2023-04-03T11:35:10;10.63;;;9.63;;
17173;SDS011;8702;48.130;-1.696;2023-04-03T11:37:39;11.47;;;10.40;;
17173;SDS011;8702;48.130;-1.696;2023-04-03T11:40:18;11.53;;;10.33;;
17173;SDS011;8702;48.130;-1.696;2023-04-03T11:42:47;11.20;;;10.10;;
17173;SDS011;8702;48.130;-1.696;2023-04-03T11:45:24;11.43;;;10.33;;
17173;SDS011;8702;48.130;-1.696;2023-04-03T11:47:53;10.47;;;9.47;;
17173;SDS011;8702;48.130;-1.696;2023-04-03T11:50:30;11.03;;;9.93;;
17173;SDS011;8702;48.130;-1.696;2023-04-03T11:56:26;10.07;;;9.03;;
17173;SDS011;8702;48.130;-1.696;2023-04-03T11:59:15;10.60;;;9.63;;
17173;SDS011;8702;48.130;-1.696;2023-04-03T12:01:50;10.67;;;9.67;;
17173;SDS011;8702;48.130;-1.696;2023-04-03T12:04:18;10.73;;;9.60;;
17173;SDS011;8702;48.130;-1.696;2023-04-03T12:12:32;10.33;;;9.43;;
17173;SDS011;8702;48.130;-1.696;2023-04-03T12:15:21;9.73;;;8.70;;
17173;SDS011;8702;48.130;-1.696;2023-04-03T12:21:20;9.40;;;8.40;;
17173;SDS011;8702;48.130;-1.696;2023-04-03T12:26:48;8.80;;;7.80;;
17173;SDS011;8702;48.130;-1.696;2023-04-03T12:29:27;9.27;;;8.30;;
17173;SDS011;8702;48.130;-1.696;2023-04-03T12:32:04;22.53;;;8.73;;
17173;SDS011;8702;48.130;-1.696;2023-04-03T12:34:44;8.27;;;7.30;;
17173;SDS011;8702;48.130;-1.696;2023-04-03T12:37:24;7.70;;;7.00;;
17173;SDS011;8702;48.130;-1.696;2023-04-03T12:40:07;8.27;;;7.13;;
17173;SDS011;8702;48.130;-1.696;2023-04-03T12:45:40;7.43;;;6.80;;
17173;SDS011;8702;48.130;-1.696;2023-04-03T12:48:12;6.80;;;6.20;;
17173;SDS011;8702;48.130;-1.696;2023-04-03T12:50:43;8.27;;;7.23;;
17173;SDS011;8702;48.130;-1.696;2023-04-03T12:53:12;8.20;;;7.00;;
17173;SDS011;8702;48.130;-1.696;2023-04-03T12:55:42;8.00;;;6.57;;
17173;SDS011;8702;48.130;-1.696;2023-04-03T12:58:13;7.50;;;6.67;;
17173;SDS011;8702;48.130;-1.696;2023-04-03T13:00:42;7.53;;;6.60;;
17173;SDS011;8702;48.130;-1.696;2023-04-03T13:03:19;7.13;;;6.43;;
17173;SDS011;8702;48.130;-1.696;2023-04-03T13:05:53;9.00;;;6.37;;
17173;SDS011;8702;48.130;-1.696;2023-04-03T13:08:23;7.30;;;6.60;;
17173;SDS011;8702;48.130;-1.696;2023-04-03T13:10:54;7.07;;;6.20;;
17173;SDS011;8702;48.130;-1.696;2023-04-03T13:13:24;7.13;;;6.37;;
17173;SDS011;8702;48.130;-1.696;2023-04-03T13:15:51;7.07;;;5.67;;
17173;SDS011;8702;48.130;-1.696;2023-04-03T13:18:27;6.87;;;6.20;;
17173;SDS011;8702;48.130;-1.696;2023-04-03T13:20:58;13.00;;;6.37;;
17173;SDS011;8702;48.130;-1.696;2023-04-03T13:23:29;7.47;;;6.13;;
17173;SDS011;8702;48.130;-1.696;2023-04-03T13:25:56;6.53;;;5.90;;
17173;SDS011;8702;48.130;-1.696;2023-04-03T13:28:28;8.03;;;6.40;;
17173;SDS011;8702;48.130;-1.696;2023-04-03T13:30:59;6.57;;;5.97;;
17173;SDS011;8702;48.130;-1.696;2023-04-03T13:33:30;7.00;;;6.20;;
17173;SDS011;8702;48.130;-1.696;2023-04-03T13:36:04;9.63;;;6.30;;
17173;SDS011;8702;48.130;-1.696;2023-04-03T13:38:34;6.50;;;5.77;;
17173;SDS011;8702;48.130;-1.696;2023-04-03T13:41:02;6.73;;;5.90;;
17173;SDS011;8702;48.130;-1.696;2023-04-03T13:43:33;6.83;;;5.80;;
17173;SDS011;8702;48.130;-1.696;2023-04-03T13:46:04;7.83;;;6.40;;
17173;SDS011;8702;48.130;-1.696;2023-04-03T13:48:48;7.03;;;5.83;;
17173;SDS011;8702;48.130;-1.696;2023-04-03T13:51:20;6.90;;;6.20;;
17173;SDS011;8702;48.130;-1.696;2023-04-03T13:53:50;7.00;;;6.30;;
17173;SDS011;8702;48.130;-1.696;2023-04-03T13:56:30;7.47;;;5.67;;
17173;SDS011;8702;48.130;-1.696;2023-04-03T13:59:05;6.23;;;5.37;;
17173;SDS011;8702;48.130;-1.696;2023-04-03T14:01:48;6.77;;;5.70;;
17173;SDS011;8702;48.130;-1.696;2023-04-03T14:04:19;6.50;;;5.70;;
17173;SDS011;8702;48.130;-1.696;2023-04-03T14:06:49;6.40;;;5.30;;
17173;SDS011;8702;48.130;-1.696;2023-04-03T14:09:16;6.23;;;5.23;;
17173;SDS011;8702;48.130;-1.696;2023-04-03T14:11:44;5.93;;;5.33;;
17173;SDS011;8702;48.130;-1.696;2023-04-03T14:14:13;7.57;;;5.77;;
17173;SDS011;8702;48.130;-1.696;2023-04-03T14:16:42;6.20;;;5.60;;
17173;SDS011;8702;48.130;-1.696;2023-04-03T14:19:14;9.37;;;8.27;;
17173;SDS011;8702;48.130;-1.696;2023-04-03T14:21:43;6.87;;;5.30;;
17173;SDS011;8702;48.130;-1.696;2023-04-03T14:24:12;5.80;;;5.17;;
17173;SDS011;8702;48.130;-1.696;2023-04-03T14:26:39;5.10;;;4.60;;
17173;SDS011;8702;48.130;-1.696;2023-04-03T14:29:09;6.37;;;4.73;;
17173;SDS011;8702;48.130;-1.696;2023-04-03T14:31:37;5.70;;;5.20;;
17173;SDS011;8702;48.130;-1.696;2023-04-03T14:34:05;5.30;;;4.80;;
17173;SDS011;8702;48.130;-1.696;2023-04-03T14:36:32;7.37;;;5.20;;
17173;SDS011;8702;48.130;-1.696;2023-04-03T14:39:00;5.40;;;4.70;;
17173;SDS011;8702;48.130;-1.696;2023-04-03T14:41:28;5.50;;;4.90;;
17173;SDS011;8702;48.130;-1.696;2023-04-03T14:43:56;5.70;;;4.20;;
17173;SDS011;8702;48.130;-1.696;2023-04-03T14:46:24;6.13;;;4.83;;
17173;SDS011;8702;48.130;-1.696;2023-04-03T14:48:52;5.30;;;4.47;;
17173;SDS011;8702;48.130;-1.696;2023-04-03T14:51:19;5.17;;;4.00;;
17173;SDS011;8702;48.130;-1.696;2023-04-03T14:53:49;6.03;;;4.30;;
17173;SDS011;8702;48.130;-1.696;2023-04-03T14:56:17;5.47;;;4.03;;
17173;SDS011;8702;48.130;-1.696;2023-04-03T14:58:48;4.70;;;4.20;;
17173;SDS011;8702;48.130;-1.696;2023-04-03T15:01:17;4.80;;;4.40;;
17173;SDS011;8702;48.130;-1.696;2023-04-03T15:03:44;4.93;;;4.00;;
17173;SDS011;8702;48.130;-1.696;2023-04-03T15:06:12;4.37;;;3.97;;
17173;SDS011;8702;48.130;-1.696;2023-04-03T15:08:39;3.87;;;3.50;;
17173;SDS011;8702;48.130;-1.696;2023-04-03T15:11:07;5.90;;;3.97;;
17173;SDS011;8702;48.130;-1.696;2023-04-03T15:13:35;3.77;;;3.33;;
17173;SDS011;8702;48.130;-1.696;2023-04-03T15:16:04;3.60;;;3.30;;
17173;SDS011;8702;48.130;-1.696;2023-04-03T15:18:32;5.93;;;3.93;;
17173;SDS011;8702;48.130;-1.696;2023-04-03T15:21:02;6.27;;;3.70;;
17173;SDS011;8702;48.130;-1.696;2023-04-03T15:23:30;5.37;;;3.30;;